sensor_id;sensor_type;location;lat;lon;timestamp;temperature;humidity
17341;DHT22;8788;49.930;8.660;2023-08-24T00:02:00;21.80;99.90
17341;DHT22;8788;49.930;8.660;2023-08-24T00:04:27;21.80;99.90
17341;DHT22;8788;49.930;8.660;2023-08-24T00:06:55;21.70;99.90
17341;DHT22;8788;49.930;8.660;2023-08-24T00:09:22;21.70;99.90
17341;DHT22;8788;49.930;8.660;2023-08-24T00:11:51;21.70;99.90
17341;DHT22;8788;49.930;8.660;2023-08-24T00:14:18;21.70;99.90
17341;DHT22;8788;49.930;8.660;2023-08-24T00:16:45;21.70;99.90
17341;DHT22;8788;49.930;8.660;2023-08-24T00:19:12;21.70;99.90
17341;DHT22;8788;49.930;8.660;2023-08-24T00:21:39;21.70;99.90
17341;DHT22;8788;49.930;8.660;2023-08-24T00:24:07;21.70;99.90
17341;DHT22;8788;49.930;8.660;2023-08-24T00:26:34;21.60;99.90
17341;DHT22;8788;49.930;8.660;2023-08-24T00:29:02;21.50;99.90
17341;DHT22;8788;49.930;8.660;2023-08-24T00:31:29;21.50;99.90
17341;DHT22;8788;49.930;8.660;2023-08-24T00:33:58;21.50;99.90
17341;DHT22;8788;49.930;8.660;2023-08-24T00:36:26;21.40;99.90
17341;DHT22;8788;49.930;8.660;2023-08-24T00:38:53;21.20;99.90
17341;DHT22;8788;49.930;8.660;2023-08-24T00:41:20;21.10;99.90
17341;DHT22;8788;49.930;8.660;2023-08-24T00:43:48;21.00;99.90
17341;DHT22;8788;49.930;8.660;2023-08-24T00:46:17;21.00;99.90
17341;DHT22;8788;49.930;8.660;2023-08-24T00:48:46;21.00;99.90
17341;DHT22;8788;49.930;8.660;2023-08-24T00:51:14;21.10;99.90
17341;DHT22;8788;49.930;8.660;2023-08-24T00:53:41;21.10;99.90
17341;DHT22;8788;49.930;8.660;2023-08-24T00:56:09;21.00;99.90
17341;DHT22;8788;49.930;8.660;2023-08-24T00:58:36;21.00;99.90
17341;DHT22;8788;49.930;8.660;2023-08-24T01:01:04;21.00;99.90
17341;DHT22;8788;49.930;8.660;2023-08-24T01:03:34;20.90;99.90
17341;DHT22;8788;49.930;8.660;2023-08-24T01:06:01;21.00;99.90
17341;DHT22;8788;49.930;8.660;2023-08-24T01:08:28;21.00;99.90
17341;DHT22;8788;49.930;8.660;2023-08-24T01:11:01;21.00;99.90
17341;DHT22;8788;49.930;8.660;2023-08-24T01:13:38;21.00;99.90
17341;DHT22;8788;49.930;8.660;2023-08-24T01:16:11;21.00;99.90
17341;DHT22;8788;49.930;8.660;2023-08-24T01:18:42;21.10;99.90
17341;DHT22;8788;49.930;8.660;2023-08-24T01:21:10;21.00;99.90
17341;DHT22;8788;49.930;8.660;2023-08-24T01:23:43;21.00;99.90
17341;DHT22;8788;49.930;8.660;2023-08-24T01:26:14;20.90;99.90
17341;DHT22;8788;49.930;8.660;2023-08-24T01:28:44;20.80;99.90
17341;DHT22;8788;49.930;8.660;2023-08-24T01:31:13;20.80;99.90
17341;DHT22;8788;49.930;8.660;2023-08-24T01:33:40;20.80;99.90
17341;DHT22;8788;49.930;8.660;2023-08-24T01:36:08;20.70;99.90
17341;DHT22;8788;49.930;8.660;2023-08-24T01:38:37;20.60;99.90
17341;DHT22;8788;49.930;8.660;2023-08-24T01:41:10;20.60;99.90
17341;DHT22;8788;49.930;8.660;2023-08-24T01:43:40;20.60;99.90
17341;DHT22;8788;49.930;8.660;2023-08-24T01:46:11;20.50;99.90
17341;DHT22;8788;49.930;8.660;2023-08-24T01:48:41;20.50;99.90
17341;DHT22;8788;49.930;8.660;2023-08-24T01:51:08;20.50;99.90
17341;DHT22;8788;49.930;8.660;2023-08-24T01:53:36;20.50;99.90
17341;DHT22;8788;49.930;8.660;2023-08-24T01:56:08;20.40;99.90
17341;DHT22;8788;49.930;8.660;2023-08-24T01:58:36;20.40;99.90
17341;DHT22;8788;49.930;8.660;2023-08-24T02:01:04;20.50;99.90
17341;DHT22;8788;49.930;8.660;2023-08-24T02:03:32;20.60;99.90
17341;DHT22;8788;49.930;8.660;2023-08-24T02:05:59;20.70;99.90
17341;DHT22;8788;49.930;8.660;2023-08-24T02:08:26;20.70;99.90
17341;DHT22;8788;49.930;8.660;2023-08-24T02:10:53;20.80;99.90
17341;DHT22;8788;49.930;8.660;2023-08-24T02:13:20;20.80;99.90
17341;DHT22;8788;49.930;8.660;2023-08-24T02:15:48;20.80;99.90
17341;DHT22;8788;49.930;8.660;2023-08-24T02:18:17;20.80;99.90
17341;DHT22;8788;49.930;8.660;2023-08-24T02:20:44;20.80;99.90
17341;DHT22;8788;49.930;8.660;2023-08-24T02:23:11;20.80;99.90
17341;DHT22;8788;49.930;8.660;2023-08-24T02:25:42;20.80;99.90
17341;DHT22;8788;49.930;8.660;2023-08-24T02:28:09;20.80;99.90
17341;DHT22;8788;49.930;8.660;2023-08-24T02:30:37;20.80;99.90
17341;DHT22;8788;49.930;8.660;2023-08-24T02:33:04;20.80;99.90
17341;DHT22;8788;49.930;8.660;2023-08-24T02:35:33;20.90;99.90
17341;DHT22;8788;49.930;8.660;2023-08-24T02:38:00;20.90;99.90
17341;DHT22;8788;49.930;8.660;2023-08-24T02:40:27;21.00;99.90
17341;DHT22;8788;49.930;8.660;2023-08-24T02:42:54;21.00;99.90
17341;DHT22;8788;49.930;8.660;2023-08-24T02:45:21;21.00;99.90
17341;DHT22;8788;49.930;8.660;2023-08-24T02:47:48;21.00;99.90
17341;DHT22;8788;49.930;8.660;2023-08-24T02:50:16;21.10;99.90
17341;DHT22;8788;49.930;8.660;2023-08-24T02:52:45;21.10;99.90
17341;DHT22;8788;49.930;8.660;2023-08-24T02:55:12;21.10;99.90
17341;DHT22;8788;49.930;8.660;2023-08-24T02:57:41;21.10;99.90
17341;DHT22;8788;49.930;8.660;2023-08-24T03:00:09;21.10;99.90
17341;DHT22;8788;49.930;8.660;2023-08-24T03:02:39;21.00;99.90
17341;DHT22;8788;49.930;8.660;2023-08-24T03:05:08;21.10;99.90
17341;DHT22;8788;49.930;8.660;2023-08-24T03:07:36;20.90;99.90
17341;DHT22;8788;49.930;8.660;2023-08-24T03:10:06;20.90;99.90
17341;DHT22;8788;49.930;8.660;2023-08-24T03:12:33;21.00;99.90
17341;DHT22;8788;49.930;8.660;2023-08-24T03:15:01;21.00;99.90
17341;DHT22;8788;49.930;8.660;2023-08-24T03:17:28;21.00;99.90
17341;DHT22;8788;49.930;8.660;2023-08-24T03:19:55;21.00;99.90
17341;DHT22;8788;49.930;8.660;2023-08-24T03:22:22;21.00;99.90
17341;DHT22;8788;49.930;8.660;2023-08-24T03:24:49;21.00;99.90
17341;DHT22;8788;49.930;8.660;2023-08-24T03:27:18;21.00;99.90
17341;DHT22;8788;49.930;8.660;2023-08-24T03:29:46;21.00;99.90
17341;DHT22;8788;49.930;8.660;2023-08-24T03:32:13;21.00;99.90
17341;DHT22;8788;49.930;8.660;2023-08-24T03:34:40;21.00;99.90
17341;DHT22;8788;49.930;8.660;2023-08-24T03:37:07;20.90;99.90
17341;DHT22;8788;49.930;8.660;2023-08-24T03:39:36;20.90;99.90
17341;DHT22;8788;49.930;8.660;2023-08-24T03:42:04;20.80;99.90
17341;DHT22;8788;49.930;8.660;2023-08-24T03:44:33;20.80;99.90
17341;DHT22;8788;49.930;8.660;2023-08-24T03:47:00;20.80;99.90
17341;DHT22;8788;49.930;8.660;2023-08-24T03:49:29;20.80;99.90
17341;DHT22;8788;49.930;8.660;2023-08-24T03:51:56;20.80;99.90
17341;DHT22;8788;49.930;8.660;2023-08-24T03:54:23;20.80;99.90
17341;DHT22;8788;49.930;8.660;2023-08-24T03:56:50;20.80;99.90
17341;DHT22;8788;49.930;8.660;2023-08-24T03:59:17;20.80;99.90
17341;DHT22;8788;49.930;8.660;2023-08-24T04:01:46;20.90;99.90
17341;DHT22;8788;49.930;8.660;2023-08-24T04:04:13;21.00;99.90
17341;DHT22;8788;49.930;8.660;2023-08-24T04:06:40;21.00;99.90
17341;DHT22;8788;49.930;8.660;2023-08-24T04:09:07;21.10;99.90
17341;DHT22;8788;49.930;8.660;2023-08-24T04:11:34;21.10;99.90
17341;DHT22;8788;49.930;8.660;2023-08-24T04:14:02;21.00;99.90
17341;DHT22;8788;49.930;8.660;2023-08-24T04:16:29;21.00;99.90
17341;DHT22;8788;49.930;8.660;2023-08-24T04:18:57;20.90;99.90
17341;DHT22;8788;49.930;8.660;2023-08-24T04:21:24;20.90;99.90
17341;DHT22;8788;49.930;8.660;2023-08-24T04:23:51;20.90;99.90
17341;DHT22;8788;49.930;8.660;2023-08-24T04:26:18;20.90;99.90
17341;DHT22;8788;49.930;8.660;2023-08-24T04:28:45;21.00;99.90
17341;DHT22;8788;49.930;8.660;2023-08-24T04:31:12;21.00;99.90
17341;DHT22;8788;49.930;8.660;2023-08-24T04:33:39;21.00;99.90
17341;DHT22;8788;49.930;8.660;2023-08-24T04:36:08;21.00;99.90
17341;DHT22;8788;49.930;8.660;2023-08-24T04:38:35;21.00;99.90
17341;DHT22;8788;49.930;8.660;2023-08-24T04:41:03;21.10;99.90
17341;DHT22;8788;49.930;8.660;2023-08-24T04:43:33;21.10;99.90
17341;DHT22;8788;49.930;8.660;2023-08-24T04:46:02;21.10;99.90
17341;DHT22;8788;49.930;8.660;2023-08-24T04:48:29;21.20;99.90
17341;DHT22;8788;49.930;8.660;2023-08-24T04:50:58;21.30;99.90
17341;DHT22;8788;49.930;8.660;2023-08-24T04:53:27;21.40;99.90
17341;DHT22;8788;49.930;8.660;2023-08-24T04:55:54;21.40;99.90
17341;DHT22;8788;49.930;8.660;2023-08-24T04:58:22;21.40;99.90
17341;DHT22;8788;49.930;8.660;2023-08-24T05:00:50;21.30;99.90
17341;DHT22;8788;49.930;8.660;2023-08-24T05:03:17;21.40;99.90
17341;DHT22;8788;49.930;8.660;2023-08-24T05:05:45;21.30;99.90
17341;DHT22;8788;49.930;8.660;2023-08-24T05:08:13;21.20;99.90
17341;DHT22;8788;49.930;8.660;2023-08-24T05:10:41;21.10;99.90
17341;DHT22;8788;49.930;8.660;2023-08-24T05:13:08;21.10;99.90
17341;DHT22;8788;49.930;8.660;2023-08-24T05:15:35;21.10;99.90
17341;DHT22;8788;49.930;8.660;2023-08-24T05:18:03;21.10;99.90
17341;DHT22;8788;49.930;8.660;2023-08-24T05:20:30;21.10;99.90
17341;DHT22;8788;49.930;8.660;2023-08-24T05:22:57;21.10;99.90
17341;DHT22;8788;49.930;8.660;2023-08-24T05:25:25;21.00;99.90
17341;DHT22;8788;49.930;8.660;2023-08-24T05:27:53;20.90;99.90
17341;DHT22;8788;49.930;8.660;2023-08-24T05:30:21;20.90;99.90
17341;DHT22;8788;49.930;8.660;2023-08-24T05:32:48;20.90;99.90
17341;DHT22;8788;49.930;8.660;2023-08-24T05:35:15;21.00;99.90
17341;DHT22;8788;49.930;8.660;2023-08-24T05:37:42;21.00;99.90
17341;DHT22;8788;49.930;8.660;2023-08-24T05:40:10;21.00;99.90
17341;DHT22;8788;49.930;8.660;2023-08-24T05:42:37;21.00;99.90
17341;DHT22;8788;49.930;8.660;2023-08-24T05:45:06;21.00;99.90
17341;DHT22;8788;49.930;8.660;2023-08-24T05:47:33;21.00;99.90
17341;DHT22;8788;49.930;8.660;2023-08-24T05:50:00;21.00;99.90
17341;DHT22;8788;49.930;8.660;2023-08-24T05:52:27;21.00;99.90
17341;DHT22;8788;49.930;8.660;2023-08-24T05:54:55;20.90;99.90
17341;DHT22;8788;49.930;8.660;2023-08-24T05:57:22;20.90;99.90
17341;DHT22;8788;49.930;8.660;2023-08-24T05:59:49;20.90;99.90
17341;DHT22;8788;49.930;8.660;2023-08-24T06:02:17;20.90;99.90
17341;DHT22;8788;49.930;8.660;2023-08-24T06:04:44;21.00;99.90
17341;DHT22;8788;49.930;8.660;2023-08-24T06:07:11;21.10;99.90
17341;DHT22;8788;49.930;8.660;2023-08-24T06:09:38;21.20;99.90
17341;DHT22;8788;49.930;8.660;2023-08-24T06:12:07;21.30;99.90
17341;DHT22;8788;49.930;8.660;2023-08-24T06:14:34;21.40;99.90
17341;DHT22;8788;49.930;8.660;2023-08-24T06:17:01;21.40;99.90
17341;DHT22;8788;49.930;8.660;2023-08-24T06:19:30;21.40;99.90
17341;DHT22;8788;49.930;8.660;2023-08-24T06:21:57;21.50;99.90
17341;DHT22;8788;49.930;8.660;2023-08-24T06:24:24;21.60;99.90
17341;DHT22;8788;49.930;8.660;2023-08-24T06:26:51;21.60;99.90
17341;DHT22;8788;49.930;8.660;2023-08-24T06:29:18;21.60;99.90
17341;DHT22;8788;49.930;8.660;2023-08-24T06:31:45;21.60;99.90
17341;DHT22;8788;49.930;8.660;2023-08-24T06:34:12;21.60;99.90
17341;DHT22;8788;49.930;8.660;2023-08-24T06:36:41;21.60;99.90
17341;DHT22;8788;49.930;8.660;2023-08-24T06:39:08;21.70;99.90
17341;DHT22;8788;49.930;8.660;2023-08-24T06:41:35;21.70;99.90
17341;DHT22;8788;49.930;8.660;2023-08-24T06:44:06;21.80;99.90
17341;DHT22;8788;49.930;8.660;2023-08-24T06:46:34;21.80;99.90
17341;DHT22;8788;49.930;8.660;2023-08-24T06:49:01;21.80;99.90
17341;DHT22;8788;49.930;8.660;2023-08-24T06:51:28;21.80;99.90
17341;DHT22;8788;49.930;8.660;2023-08-24T06:53:57;21.80;99.90
17341;DHT22;8788;49.930;8.660;2023-08-24T06:56:24;21.80;99.90
17341;DHT22;8788;49.930;8.660;2023-08-24T06:58:51;21.80;99.90
17341;DHT22;8788;49.930;8.660;2023-08-24T07:01:18;21.90;99.90
17341;DHT22;8788;49.930;8.660;2023-08-24T07:03:45;22.00;99.90
17341;DHT22;8788;49.930;8.660;2023-08-24T07:06:12;22.00;99.90
17341;DHT22;8788;49.930;8.660;2023-08-24T07:08:39;22.10;99.90
17341;DHT22;8788;49.930;8.660;2023-08-24T07:11:07;22.10;99.90
17341;DHT22;8788;49.930;8.660;2023-08-24T07:13:34;22.20;99.90
17341;DHT22;8788;49.930;8.660;2023-08-24T07:16:02;22.30;99.90
17341;DHT22;8788;49.930;8.660;2023-08-24T07:18:29;22.40;99.90
17341;DHT22;8788;49.930;8.660;2023-08-24T07:20:57;22.50;99.90
17341;DHT22;8788;49.930;8.660;2023-08-24T07:23:24;22.70;99.90
17341;DHT22;8788;49.930;8.660;2023-08-24T07:25:51;22.70;99.90
17341;DHT22;8788;49.930;8.660;2023-08-24T07:28:20;22.80;99.90
17341;DHT22;8788;49.930;8.660;2023-08-24T07:30:47;23.00;99.90
17341;DHT22;8788;49.930;8.660;2023-08-24T07:33:14;23.10;99.90
17341;DHT22;8788;49.930;8.660;2023-08-24T07:35:41;23.20;99.90
17341;DHT22;8788;49.930;8.660;2023-08-24T07:38:08;23.20;99.90
17341;DHT22;8788;49.930;8.660;2023-08-24T07:40:36;23.40;99.90
17341;DHT22;8788;49.930;8.660;2023-08-24T07:43:03;23.50;99.90
17341;DHT22;8788;49.930;8.660;2023-08-24T07:45:31;23.50;99.90
17341;DHT22;8788;49.930;8.660;2023-08-24T07:47:59;23.40;99.90
17341;DHT22;8788;49.930;8.660;2023-08-24T07:50:26;23.30;99.90
17341;DHT22;8788;49.930;8.660;2023-08-24T07:52:53;23.30;99.90
17341;DHT22;8788;49.930;8.660;2023-08-24T07:55:20;23.30;99.90
17341;DHT22;8788;49.930;8.660;2023-08-24T07:57:47;23.30;99.90
17341;DHT22;8788;49.930;8.660;2023-08-24T08:00:15;23.30;99.90
17341;DHT22;8788;49.930;8.660;2023-08-24T08:02:43;23.40;99.90
17341;DHT22;8788;49.930;8.660;2023-08-24T08:05:10;23.40;99.90
17341;DHT22;8788;49.930;8.660;2023-08-24T08:07:38;23.40;99.90
17341;DHT22;8788;49.930;8.660;2023-08-24T08:10:06;23.40;99.90
17341;DHT22;8788;49.930;8.660;2023-08-24T08:12:33;23.40;99.90
17341;DHT22;8788;49.930;8.660;2023-08-24T08:15:01;23.40;99.90
17341;DHT22;8788;49.930;8.660;2023-08-24T08:17:28;23.40;99.90
17341;DHT22;8788;49.930;8.660;2023-08-24T08:19:57;23.40;99.90
17341;DHT22;8788;49.930;8.660;2023-08-24T08:22:24;23.40;99.90
17341;DHT22;8788;49.930;8.660;2023-08-24T08:24:52;23.40;99.90
17341;DHT22;8788;49.930;8.660;2023-08-24T08:27:22;23.50;99.90
17341;DHT22;8788;49.930;8.660;2023-08-24T08:29:50;23.60;99.90
17341;DHT22;8788;49.930;8.660;2023-08-24T09:37:53;26.10;99.90
17341;DHT22;8788;49.930;8.660;2023-08-24T09:40:24;26.30;99.90
17341;DHT22;8788;49.930;8.660;2023-08-24T09:42:51;26.50;99.90
17341;DHT22;8788;49.930;8.660;2023-08-24T09:45:19;26.70;99.90
17341;DHT22;8788;49.930;8.660;2023-08-24T09:47:49;26.70;99.90
17341;DHT22;8788;49.930;8.660;2023-08-24T09:50:16;26.80;99.90
17341;DHT22;8788;49.930;8.660;2023-08-24T09:52:43;26.90;99.90
17341;DHT22;8788;49.930;8.660;2023-08-24T09:55:15;27.10;99.90
17341;DHT22;8788;49.930;8.660;2023-08-24T09:57:47;27.20;99.90
17341;DHT22;8788;49.930;8.660;2023-08-24T10:00:16;27.40;99.90
17341;DHT22;8788;49.930;8.660;2023-08-24T10:02:49;27.40;99.90
17341;DHT22;8788;49.930;8.660;2023-08-24T10:05:21;27.50;99.90
17341;DHT22;8788;49.930;8.660;2023-08-24T10:07:52;27.60;99.90
17341;DHT22;8788;49.930;8.660;2023-08-24T10:10:23;27.70;99.90
17341;DHT22;8788;49.930;8.660;2023-08-24T10:12:56;27.80;99.90
17341;DHT22;8788;49.930;8.660;2023-08-24T10:15:24;27.70;99.90
17341;DHT22;8788;49.930;8.660;2023-08-24T10:17:53;27.80;99.90
17341;DHT22;8788;49.930;8.660;2023-08-24T10:20:21;28.00;99.90
17341;DHT22;8788;49.930;8.660;2023-08-24T10:22:50;28.00;99.90
17341;DHT22;8788;49.930;8.660;2023-08-24T10:25:18;28.10;99.90
17341;DHT22;8788;49.930;8.660;2023-08-24T10:27:47;28.40;99.90
17341;DHT22;8788;49.930;8.660;2023-08-24T10:30:16;28.50;99.90
17341;DHT22;8788;49.930;8.660;2023-08-24T10:32:45;28.70;99.90
17341;DHT22;8788;49.930;8.660;2023-08-24T10:35:14;28.80;99.90
17341;DHT22;8788;49.930;8.660;2023-08-24T10:37:44;28.90;99.90
17341;DHT22;8788;49.930;8.660;2023-08-24T10:40:13;29.00;99.90
17341;DHT22;8788;49.930;8.660;2023-08-24T10:42:48;29.10;99.90
17341;DHT22;8788;49.930;8.660;2023-08-24T10:45:23;29.20;99.90
17341;DHT22;8788;49.930;8.660;2023-08-24T10:47:52;29.20;99.90
17341;DHT22;8788;49.930;8.660;2023-08-24T10:50:21;29.30;99.90
17341;DHT22;8788;49.930;8.660;2023-08-24T10:52:49;29.40;99.90
17341;DHT22;8788;49.930;8.660;2023-08-24T10:55:23;29.50;99.90
17341;DHT22;8788;49.930;8.660;2023-08-24T10:57:59;29.50;99.90
17341;DHT22;8788;49.930;8.660;2023-08-24T11:00:27;29.50;99.90
17341;DHT22;8788;49.930;8.660;2023-08-24T11:02:54;29.60;99.90
17341;DHT22;8788;49.930;8.660;2023-08-24T11:05:22;29.60;99.90
17341;DHT22;8788;49.930;8.660;2023-08-24T11:07:52;29.70;99.90
17341;DHT22;8788;49.930;8.660;2023-08-24T11:10:20;29.80;99.90
17341;DHT22;8788;49.930;8.660;2023-08-24T11:13:08;29.80;99.90
17341;DHT22;8788;49.930;8.660;2023-08-24T11:15:38;29.90;99.90
17341;DHT22;8788;49.930;8.660;2023-08-24T11:18:20;30.10;99.90
17341;DHT22;8788;49.930;8.660;2023-08-24T11:20:50;30.30;99.90
17341;DHT22;8788;49.930;8.660;2023-08-24T11:23:17;30.40;99.90
17341;DHT22;8788;49.930;8.660;2023-08-24T11:25:45;30.50;99.20
17341;DHT22;8788;49.930;8.660;2023-08-24T11:28:19;30.60;99.00
17341;DHT22;8788;49.930;8.660;2023-08-24T11:30:46;30.60;99.20
17341;DHT22;8788;49.930;8.660;2023-08-24T11:33:14;30.70;98.90
17341;DHT22;8788;49.930;8.660;2023-08-24T11:35:42;30.80;98.60
17341;DHT22;8788;49.930;8.660;2023-08-24T11:38:10;30.80;98.20
17341;DHT22;8788;49.930;8.660;2023-08-24T11:40:38;31.00;98.00
17341;DHT22;8788;49.930;8.660;2023-08-24T11:43:05;31.10;97.30
17341;DHT22;8788;49.930;8.660;2023-08-24T11:45:34;31.20;97.10
17341;DHT22;8788;49.930;8.660;2023-08-24T11:48:03;31.10;97.10
17341;DHT22;8788;49.930;8.660;2023-08-24T11:50:32;31.10;97.10
17341;DHT22;8788;49.930;8.660;2023-08-24T11:52:59;31.00;96.80
17341;DHT22;8788;49.930;8.660;2023-08-24T11:55:26;30.80;96.90
17341;DHT22;8788;49.930;8.660;2023-08-24T11:57:53;30.80;97.20
17341;DHT22;8788;49.930;8.660;2023-08-24T12:00:21;30.90;97.40
17341;DHT22;8788;49.930;8.660;2023-08-24T12:02:50;30.90;97.10
17341;DHT22;8788;49.930;8.660;2023-08-24T12:05:21;30.80;97.00
17341;DHT22;8788;49.930;8.660;2023-08-24T12:07:49;30.80;97.10
17341;DHT22;8788;49.930;8.660;2023-08-24T12:10:16;30.70;97.00
17341;DHT22;8788;49.930;8.660;2023-08-24T12:12:43;30.60;97.20
17341;DHT22;8788;49.930;8.660;2023-08-24T12:15:15;30.40;96.80
17341;DHT22;8788;49.930;8.660;2023-08-24T12:17:44;30.30;97.10
17341;DHT22;8788;49.930;8.660;2023-08-24T12:20:19;30.30;97.30
17341;DHT22;8788;49.930;8.660;2023-08-24T12:22:51;30.30;97.50
17341;DHT22;8788;49.930;8.660;2023-08-24T12:25:21;30.40;97.50
17341;DHT22;8788;49.930;8.660;2023-08-24T12:27:50;30.30;97.30
17341;DHT22;8788;49.930;8.660;2023-08-24T12:30:18;30.20;97.40
17341;DHT22;8788;49.930;8.660;2023-08-24T12:32:47;30.20;97.50
17341;DHT22;8788;49.930;8.660;2023-08-24T12:35:17;30.20;97.60
17341;DHT22;8788;49.930;8.660;2023-08-24T12:37:44;30.30;97.50
17341;DHT22;8788;49.930;8.660;2023-08-24T12:40:13;30.40;97.40
17341;DHT22;8788;49.930;8.660;2023-08-24T12:42:40;30.40;98.00
17341;DHT22;8788;49.930;8.660;2023-08-24T12:45:08;30.40;97.60
17341;DHT22;8788;49.930;8.660;2023-08-24T12:47:35;30.50;98.20
17341;DHT22;8788;49.930;8.660;2023-08-24T12:50:06;30.50;97.80
17341;DHT22;8788;49.930;8.660;2023-08-24T12:52:35;30.60;97.60
17341;DHT22;8788;49.930;8.660;2023-08-24T12:55:02;30.70;97.80
17341;DHT22;8788;49.930;8.660;2023-08-24T12:57:30;30.70;97.50
17341;DHT22;8788;49.930;8.660;2023-08-24T12:59:57;30.70;97.40
17341;DHT22;8788;49.930;8.660;2023-08-24T13:02:24;30.70;97.40
17341;DHT22;8788;49.930;8.660;2023-08-24T13:04:51;30.70;97.00
17341;DHT22;8788;49.930;8.660;2023-08-24T13:07:18;30.70;97.00
17341;DHT22;8788;49.930;8.660;2023-08-24T13:09:47;30.60;96.90
17341;DHT22;8788;49.930;8.660;2023-08-24T13:12:14;30.70;97.20
17341;DHT22;8788;49.930;8.660;2023-08-24T13:14:41;30.80;97.40
17341;DHT22;8788;49.930;8.660;2023-08-24T13:17:08;30.80;97.30
17341;DHT22;8788;49.930;8.660;2023-08-24T13:19:35;30.80;97.00
17341;DHT22;8788;49.930;8.660;2023-08-24T13:22:02;30.70;96.80
17341;DHT22;8788;49.930;8.660;2023-08-24T13:24:29;30.60;97.10
17341;DHT22;8788;49.930;8.660;2023-08-24T13:26:57;30.60;97.00
17341;DHT22;8788;49.930;8.660;2023-08-24T13:29:25;30.60;97.30
17341;DHT22;8788;49.930;8.660;2023-08-24T13:31:52;30.60;97.20
17341;DHT22;8788;49.930;8.660;2023-08-24T13:34:19;30.50;96.80
17341;DHT22;8788;49.930;8.660;2023-08-24T13:36:46;30.50;97.00
17341;DHT22;8788;49.930;8.660;2023-08-24T13:39:13;30.40;96.70
17341;DHT22;8788;49.930;8.660;2023-08-24T13:41:40;30.40;96.90
17341;DHT22;8788;49.930;8.660;2023-08-24T13:44:09;30.30;97.30
17341;DHT22;8788;49.930;8.660;2023-08-24T13:46:36;30.30;97.50
17341;DHT22;8788;49.930;8.660;2023-08-24T13:49:03;30.40;97.60
17341;DHT22;8788;49.930;8.660;2023-08-24T13:51:30;30.50;97.20
17341;DHT22;8788;49.930;8.660;2023-08-24T13:53:57;30.50;97.10
17341;DHT22;8788;49.930;8.660;2023-08-24T13:56:24;30.60;96.90
17341;DHT22;8788;49.930;8.660;2023-08-24T13:58:51;30.70;96.80
17341;DHT22;8788;49.930;8.660;2023-08-24T14:01:20;30.90;96.70
17341;DHT22;8788;49.930;8.660;2023-08-24T14:03:47;31.20;96.60
17341;DHT22;8788;49.930;8.660;2023-08-24T14:06:15;31.30;95.70
17341;DHT22;8788;49.930;8.660;2023-08-24T14:08:42;31.30;95.50
17341;DHT22;8788;49.930;8.660;2023-08-24T14:11:09;31.10;95.00
17341;DHT22;8788;49.930;8.660;2023-08-24T14:13:36;30.90;95.00
17341;DHT22;8788;49.930;8.660;2023-08-24T14:16:03;30.80;94.80
17341;DHT22;8788;49.930;8.660;2023-08-24T14:18:32;30.60;95.00
17341;DHT22;8788;49.930;8.660;2023-08-24T14:21:02;30.50;95.00
17341;DHT22;8788;49.930;8.660;2023-08-24T14:23:29;30.50;95.00
17341;DHT22;8788;49.930;8.660;2023-08-24T14:25:56;30.40;95.30
17341;DHT22;8788;49.930;8.660;2023-08-24T14:28:23;30.40;95.50
17341;DHT22;8788;49.930;8.660;2023-08-24T14:30:50;30.40;95.30
17341;DHT22;8788;49.930;8.660;2023-08-24T14:33:17;30.30;95.70
17341;DHT22;8788;49.930;8.660;2023-08-24T14:35:53;30.30;95.70
17341;DHT22;8788;49.930;8.660;2023-08-24T14:38:20;30.20;95.30
17341;DHT22;8788;49.930;8.660;2023-08-24T14:40:47;30.00;95.50
17341;DHT22;8788;49.930;8.660;2023-08-24T14:43:14;29.90;95.50
17341;DHT22;8788;49.930;8.660;2023-08-24T14:45:41;29.70;95.80
17341;DHT22;8788;49.930;8.660;2023-08-24T14:48:08;29.50;96.50
17341;DHT22;8788;49.930;8.660;2023-08-24T14:50:38;29.40;97.10
17341;DHT22;8788;49.930;8.660;2023-08-24T14:53:06;29.30;96.90
17341;DHT22;8788;49.930;8.660;2023-08-24T14:55:33;29.30;96.60
17341;DHT22;8788;49.930;8.660;2023-08-24T14:58:00;29.20;96.90
17341;DHT22;8788;49.930;8.660;2023-08-24T15:00:29;29.00;97.50
17341;DHT22;8788;49.930;8.660;2023-08-24T15:02:56;28.80;98.30
17341;DHT22;8788;49.930;8.660;2023-08-24T15:05:23;28.80;99.10
17341;DHT22;8788;49.930;8.660;2023-08-24T15:07:50;28.80;99.70
17341;DHT22;8788;49.930;8.660;2023-08-24T15:10:19;28.70;99.90
17341;DHT22;8788;49.930;8.660;2023-08-24T15:12:46;28.70;99.90
17341;DHT22;8788;49.930;8.660;2023-08-24T15:15:13;28.60;99.90
17341;DHT22;8788;49.930;8.660;2023-08-24T15:17:43;28.50;99.90
17341;DHT22;8788;49.930;8.660;2023-08-24T15:20:10;28.40;99.90
17341;DHT22;8788;49.930;8.660;2023-08-24T15:22:38;28.20;99.90
17341;DHT22;8788;49.930;8.660;2023-08-24T15:25:06;28.00;99.90
17341;DHT22;8788;49.930;8.660;2023-08-24T15:27:36;27.60;99.90
17341;DHT22;8788;49.930;8.660;2023-08-24T15:30:04;27.20;99.90
17341;DHT22;8788;49.930;8.660;2023-08-24T15:32:31;27.00;99.90
17341;DHT22;8788;49.930;8.660;2023-08-24T15:34:58;27.10;99.90
17341;DHT22;8788;49.930;8.660;2023-08-24T15:37:26;27.10;99.90
17341;DHT22;8788;49.930;8.660;2023-08-24T15:39:55;27.20;99.90
17341;DHT22;8788;49.930;8.660;2023-08-24T15:42:23;27.20;99.90
17341;DHT22;8788;49.930;8.660;2023-08-24T15:44:51;27.20;99.90
17341;DHT22;8788;49.930;8.660;2023-08-24T15:47:18;27.20;99.90
17341;DHT22;8788;49.930;8.660;2023-08-24T15:49:46;27.10;99.90
17341;DHT22;8788;49.930;8.660;2023-08-24T15:52:13;27.10;99.90
17341;DHT22;8788;49.930;8.660;2023-08-24T15:54:40;27.20;99.90
17341;DHT22;8788;49.930;8.660;2023-08-24T15:57:07;27.20;99.90
17341;DHT22;8788;49.930;8.660;2023-08-24T15:59:36;27.20;99.90
17341;DHT22;8788;49.930;8.660;2023-08-24T16:02:05;27.20;99.90
17341;DHT22;8788;49.930;8.660;2023-08-24T16:04:32;27.20;99.90
17341;DHT22;8788;49.930;8.660;2023-08-24T16:06:59;27.20;99.90
17341;DHT22;8788;49.930;8.660;2023-08-24T16:09:26;27.20;99.90
17341;DHT22;8788;49.930;8.660;2023-08-24T16:11:53;27.30;99.90
17341;DHT22;8788;49.930;8.660;2023-08-24T16:14:20;27.20;99.90
17341;DHT22;8788;49.930;8.660;2023-08-24T16:16:47;27.10;99.90
17341;DHT22;8788;49.930;8.660;2023-08-24T16:19:16;27.10;99.90
17341;DHT22;8788;49.930;8.660;2023-08-24T16:21:43;27.10;99.90
17341;DHT22;8788;49.930;8.660;2023-08-24T16:24:10;27.10;99.90
17341;DHT22;8788;49.930;8.660;2023-08-24T16:26:37;27.10;99.90
17341;DHT22;8788;49.930;8.660;2023-08-24T16:29:05;27.10;99.90
17341;DHT22;8788;49.930;8.660;2023-08-24T16:31:32;27.10;99.90
17341;DHT22;8788;49.930;8.660;2023-08-24T16:34:01;27.10;99.90
17341;DHT22;8788;49.930;8.660;2023-08-24T16:36:29;27.10;99.90
17341;DHT22;8788;49.930;8.660;2023-08-24T16:38:56;27.20;99.90
17341;DHT22;8788;49.930;8.660;2023-08-24T16:41:23;27.20;99.90
17341;DHT22;8788;49.930;8.660;2023-08-24T16:43:50;27.10;99.90
17341;DHT22;8788;49.930;8.660;2023-08-24T16:46:17;27.10;99.90
17341;DHT22;8788;49.930;8.660;2023-08-24T16:48:44;27.10;99.90
17341;DHT22;8788;49.930;8.660;2023-08-24T16:51:12;27.10;99.90
17341;DHT22;8788;49.930;8.660;2023-08-24T16:53:40;27.10;99.90
17341;DHT22;8788;49.930;8.660;2023-08-24T16:56:07;27.10;99.90